Time;durP1;ratioP1;P1;durP2;ratioP2;P2;SDS_P1;SDS_P2;PMS_P1;PMS_P2;Temp;Humidity;BMP_temperature;BMP_pressure;BME280_temperature;BME280_humidity;BME280_pressure;Samples;Min_cycle;Max_cycle;Signal;HPM_P1;HPM_P2
2022/08/21 00:01:30;;;;;;;0.00;0.00;;;25.10;60.60;;;;;;3909691;30;20536;-71
2022/08/21 00:03:52;;;;;;;0.00;0.00;;;25.10;60.60;;;;;;3912215;30;20090;-71
2022/08/21 00:06:16;;;;;;;0.03;0.03;;;25.10;60.70;;;;;;3911296;30;20477;-71
2022/08/21 00:08:39;;;;;;;0.00;0.00;;;25.10;60.60;;;;;;3911918;30;20107;-71
2022/08/21 00:11:01;;;;;;;0.00;0.00;;;25.10;60.70;;;;;;3911710;30;20421;-71
2022/08/21 00:13:23;;;;;;;0.00;0.00;;;25.00;60.60;;;;;;3911755;30;20048;-73
2022/08/21 00:15:45;;;;;;;0.10;0.10;;;25.10;60.70;;;;;;3911426;30;20259;-73
2022/08/21 00:18:12;;;;;;;0.17;0.17;;;25.00;60.70;;;;;;3898417;30;20135;-73
2022/08/21 00:20:35;;;;;;;0.00;0.00;;;25.10;60.80;;;;;;3911435;30;20060;-72
2022/08/21 00:22:58;;;;;;;0.10;0.10;;;25.00;60.70;;;;;;3911917;30;20056;-72
2022/08/21 00:25:22;;;;;;;0.00;0.00;;;25.10;60.80;;;;;;3911799;30;20060;-72
2022/08/21 00:27:46;;;;;;;0.20;0.20;;;25.00;60.70;;;;;;3911747;30;20114;-72
2022/08/21 00:30:10;;;;;;;0.00;0.00;;;25.00;60.70;;;;;;3911530;30;20060;-72
2022/08/21 00:32:33;;;;;;;0.20;0.20;;;25.00;60.70;;;;;;3897661;30;20068;-73
2022/08/21 00:34:55;;;;;;;0.00;0.00;;;25.00;60.80;;;;;;3897017;30;20108;-72
2022/08/21 00:37:18;;;;;;;0.00;0.00;;;25.00;60.70;;;;;;3884010;30;20061;-72
2022/08/21 00:39:41;;;;;;;0.00;0.00;;;25.00;60.70;;;;;;3901988;30;20068;-71
2022/08/21 00:42:03;;;;;;;0.13;0.13;;;25.00;60.80;;;;;;3911855;30;20193;-72
2022/08/21 00:44:26;;;;;;;0.00;0.00;;;25.00;60.80;;;;;;3911751;30;20052;-72
2022/08/21 00:46:48;;;;;;;0.00;0.00;;;25.00;60.80;;;;;;3911793;30;20056;-72
2022/08/21 00:49:11;;;;;;;0.00;0.00;;;25.00;60.70;;;;;;3911479;30;20516;-72
2022/08/21 00:51:38;;;;;;;2.30;1.33;;;25.00;60.70;;;;;;3914521;30;20048;-71
2022/08/21 00:54:02;;;;;;;0.00;0.00;;;25.00;60.80;;;;;;3914429;30;20111;-71
2022/08/21 00:56:26;;;;;;;0.00;0.00;;;25.00;60.70;;;;;;3915060;30;20056;-68
2022/08/21 00:58:49;;;;;;;0.00;0.00;;;25.00;60.80;;;;;;3913992;30;20052;-68
2022/08/21 01:01:14;;;;;;;0.00;0.00;;;24.90;60.80;;;;;;3914076;30;20056;-68
2022/08/21 01:03:37;;;;;;;0.00;0.00;;;24.90;60.80;;;;;;3914872;30;21539;-68
2022/08/21 01:05:59;;;;;;;0.00;0.00;;;24.90;60.80;;;;;;3913109;30;20721;-68
2022/08/21 01:08:22;;;;;;;0.00;0.00;;;24.90;60.90;;;;;;3914467;30;20493;-68
2022/08/21 01:10:45;;;;;;;0.00;0.00;;;24.90;61.00;;;;;;3913703;30;20592;-69
2022/08/21 01:13:11;;;;;;;0.10;0.10;;;24.90;61.10;;;;;;3913793;30;20052;-68
2022/08/21 01:15:36;;;;;;;0.00;0.00;;;24.90;61.10;;;;;;3913763;30;20087;-68
2022/08/21 01:17:58;;;;;;;0.17;0.17;;;24.90;61.20;;;;;;3914443;30;20134;-68
2022/08/21 01:20:21;;;;;;;3.20;1.00;;;24.90;61.30;;;;;;3913773;30;20465;-69
2022/08/21 01:22:44;;;;;;;0.00;0.00;;;24.90;61.40;;;;;;3914441;30;20060;-68
2022/08/21 01:25:08;;;;;;;3.10;2.88;;;24.90;61.40;;;;;;3913120;30;20159;-68
2022/08/21 01:27:30;;;;;;;0.00;0.00;;;24.80;61.30;;;;;;3913366;30;20150;-68
2022/08/21 01:29:57;;;;;;;0.00;0.00;;;24.80;61.30;;;;;;3914388;30;20076;-68
2022/08/21 01:32:21;;;;;;;0.00;0.00;;;24.80;61.40;;;;;;3913846;30;20060;-68
2022/08/21 01:34:46;;;;;;;0.00;0.00;;;24.80;61.40;;;;;;3913318;30;20056;-68
2022/08/21 01:37:08;;;;;;;0.00;0.00;;;24.80;61.40;;;;;;3913939;30;20053;-69
2022/08/21 01:39:32;;;;;;;0.00;0.00;;;24.80;61.50;;;;;;3913553;30;20063;-68
2022/08/21 01:41:53;;;;;;;0.00;0.00;;;24.80;61.40;;;;;;3913709;30;20060;-68
2022/08/21 01:44:15;;;;;;;0.00;0.00;;;24.70;61.40;;;;;;3914396;30;20053;-68
2022/08/21 01:46:37;;;;;;;0.00;0.00;;;24.80;61.50;;;;;;3912770;30;20056;-69
2022/08/21 01:49:00;;;;;;;0.00;0.00;;;24.80;61.50;;;;;;3900233;30;20611;-68
2022/08/21 01:51:23;;;;;;;0.03;0.03;;;24.80;61.50;;;;;;3913682;30;20135;-69
2022/08/21 01:53:45;;;;;;;0.00;0.00;;;24.70;61.50;;;;;;3900393;30;20122;-68
2022/08/21 01:56:13;;;;;;;1.65;0.80;;;24.70;61.40;;;;;;3913216;30;20494;-69
2022/08/21 01:58:35;;;;;;;0.00;0.00;;;24.70;61.50;;;;;;3898031;30;20061;-69
2022/08/21 02:00:57;;;;;;;0.00;0.00;;;24.70;61.50;;;;;;3900684;30;20052;-69
2022/08/21 02:03:19;;;;;;;0.10;0.10;;;24.70;61.50;;;;;;3913438;30;20135;-69
2022/08/21 02:05:47;;;;;;;0.00;0.00;;;24.70;61.50;;;;;;3911821;30;20052;-69
2022/08/21 02:08:09;;;;;;;0.10;0.10;;;24.70;61.40;;;;;;3913401;30;20060;-68
2022/08/21 02:10:33;;;;;;;0.00;0.00;;;24.60;61.30;;;;;;3913060;30;20049;-69
2022/08/21 02:12:58;;;;;;;0.17;0.17;;;24.60;61.30;;;;;;3913172;30;20144;-67
2022/08/21 02:15:20;;;;;;;0.15;0.15;;;24.60;61.30;;;;;;3899642;30;20053;-69
2022/08/21 02:17:48;;;;;;;0.00;0.00;;;24.60;61.30;;;;;;3913637;30;20052;-69
2022/08/21 02:20:10;;;;;;;0.70;0.70;;;24.60;61.30;;;;;;3913147;30;20045;-69
2022/08/21 02:22:32;;;;;;;0.00;0.00;;;24.60;61.30;;;;;;3900477;30;20095;-68
2022/08/21 02:24:55;;;;;;;0.00;0.00;;;24.50;61.20;;;;;;3912958;30;20063;-69
2022/08/21 02:27:17;;;;;;;0.00;0.00;;;24.50;61.20;;;;;;3913313;30;20076;-68
2022/08/21 02:29:40;;;;;;;0.00;0.00;;;24.60;61.20;;;;;;3900035;30;20462;-68
2022/08/21 02:32:02;;;;;;;2.75;1.00;;;24.50;61.10;;;;;;3902861;30;20516;-68
2022/08/21 02:34:25;;;;;;;0.00;0.00;;;24.50;61.00;;;;;;3898354;30;20080;-68
2022/08/21 02:36:50;;;;;;;0.00;0.00;;;24.50;61.00;;;;;;3898976;30;20057;-68
2022/08/21 02:39:20;;;;;;;0.00;0.00;;;24.50;61.00;;;;;;3898568;30;20053;-70
2022/08/21 02:41:43;;;;;;;0.00;0.00;;;24.50;61.00;;;;;;3899157;30;20055;-70
2022/08/21 02:44:05;;;;;;;0.17;0.17;;;24.50;61.00;;;;;;3898458;30;20061;-70
2022/08/21 02:46:30;;;;;;;0.00;0.00;;;24.50;61.00;;;;;;3899165;30;20106;-70
2022/08/21 02:48:52;;;;;;;0.20;0.20;;;24.40;60.90;;;;;;3911807;30;20075;-71
2022/08/21 02:51:18;;;;;;;0.00;0.00;;;24.50;61.00;;;;;;3899820;30;20063;-69
2022/08/21 02:53:40;;;;;;;0.00;0.00;;;24.40;61.00;;;;;;3899322;30;20055;-69
2022/08/21 02:56:06;;;;;;;0.00;0.00;;;24.40;61.00;;;;;;3912501;30;20056;-68
2022/08/21 02:58:32;;;;;;;0.35;0.35;;;24.40;61.00;;;;;;3912673;30;20059;-68
2022/08/21 03:00:54;;;;;;;0.00;0.00;;;24.40;61.10;;;;;;3912491;30;20492;-68
2022/08/21 03:03:18;;;;;;;0.00;0.00;;;24.40;61.10;;;;;;3912778;30;20057;-69
2022/08/21 03:05:40;;;;;;;0.00;0.00;;;24.40;61.10;;;;;;3898768;30;20068;-69
2022/08/21 03:08:04;;;;;;;0.00;0.00;;;24.40;61.10;;;;;;3912093;30;20501;-69
2022/08/21 03:10:27;;;;;;;0.00;0.00;;;24.40;61.10;;;;;;3912213;30;20067;-69
2022/08/21 03:12:50;;;;;;;0.00;0.00;;;24.40;61.10;;;;;;3899019;30;20135;-68
2022/08/21 03:15:16;;;;;;;0.00;0.00;;;24.40;62.10;;;;;;3897595;30;20130;-69
2022/08/21 03:17:38;;;;;;;0.00;0.00;;;24.30;61.20;;;;;;3899289;30;20057;-69
2022/08/21 03:20:03;;;;;;;0.00;0.00;;;24.40;61.20;;;;;;3898492;30;20052;-69
2022/08/21 03:22:26;;;;;;;0.00;0.00;;;24.40;61.20;;;;;;3912140;30;20083;-69
2022/08/21 03:24:48;;;;;;;0.00;0.00;;;24.40;61.40;;;;;;3911635;30;20067;-69
2022/08/21 03:27:10;;;;;;;0.00;0.00;;;24.40;61.30;;;;;;3912576;30;20110;-69
2022/08/21 03:29:32;;;;;;;0.10;0.10;;;24.30;61.30;;;;;;3912585;30;20161;-70
2022/08/21 03:31:54;;;;;;;0.00;0.00;;;24.30;62.20;;;;;;3912488;30;20080;-69
2022/08/21 03:34:16;;;;;;;0.00;0.00;;;24.30;61.30;;;;;;3911613;30;20413;-69
2022/08/21 03:36:40;;;;;;;0.00;0.00;;;24.30;61.40;;;;;;3911099;30;20057;-69
2022/08/21 03:39:03;;;;;;;0.00;0.00;;;24.30;61.40;;;;;;3912213;30;20064;-68
2022/08/21 03:41:25;;;;;;;0.20;0.20;;;24.30;62.30;;;;;;3911477;30;20099;-68
2022/08/21 03:43:47;;;;;;;0.10;0.10;;;24.30;61.50;;;;;;3912180;30;20122;-69
2022/08/21 03:46:11;;;;;;;0.00;0.00;;;24.30;61.50;;;;;;3912185;30;20056;-69
2022/08/21 03:48:33;;;;;;;0.10;0.10;;;24.30;61.50;;;;;;3898784;30;20056;-69
2022/08/21 03:50:56;;;;;;;0.20;0.20;;;24.30;61.50;;;;;;3912194;30;20071;-69
2022/08/21 03:53:20;;;;;;;0.10;0.10;;;24.20;61.50;;;;;;3898242;30;20870;-68
2022/08/21 03:55:42;;;;;;;0.00;0.00;;;24.20;61.50;;;;;;3911916;30;20132;-68
2022/08/21 03:58:05;;;;;;;0.00;0.00;;;24.20;62.40;;;;;;3898530;30;20118;-68
2022/08/21 04:00:37;;;;;;;0.20;0.20;;;24.20;61.50;;;;;;3910584;30;20136;-68
2022/08/21 04:03:00;;;;;;;0.00;0.00;;;24.20;61.60;;;;;;3911501;30;20060;-68
2022/08/21 04:05:27;;;;;;;0.65;0.65;;;24.20;61.60;;;;;;3898012;30;20086;-69
2022/08/21 04:07:49;;;;;;;0.15;0.15;;;24.20;61.60;;;;;;3911697;30;20139;-68
2022/08/21 04:10:13;;;;;;;0.20;0.10;;;24.20;61.60;;;;;;3910456;30;20091;-69
2022/08/21 04:12:35;;;;;;;0.47;0.47;;;24.20;61.70;;;;;;3911489;30;20517;-68
2022/08/21 04:14:58;;;;;;;0.00;0.00;;;24.10;61.60;;;;;;3911566;30;20060;-68
2022/08/21 04:17:20;;;;;;;0.00;0.00;;;24.10;61.70;;;;;;3911743;30;20052;-68
2022/08/21 04:19:41;;;;;;;0.10;0.10;;;24.10;61.70;;;;;;3910762;30;20060;-70
2022/08/21 04:22:04;;;;;;;0.00;0.00;;;24.10;61.70;;;;;;3912229;30;20071;-67
2022/08/21 04:24:25;;;;;;;0.00;0.00;;;24.10;61.70;;;;;;3911161;30;20065;-68
2022/08/21 04:26:49;;;;;;;0.43;0.43;;;24.10;61.70;;;;;;3911980;30;20500;-68
2022/08/21 04:29:12;;;;;;;0.00;0.00;;;24.10;62.70;;;;;;3911472;30;20377;-68
2022/08/21 04:31:36;;;;;;;0.00;0.00;;;24.10;61.80;;;;;;3911749;30;20056;-68
2022/08/21 04:33:58;;;;;;;0.00;0.00;;;24.10;61.90;;;;;;3911537;30;20075;-68
2022/08/21 04:36:21;;;;;;;0.00;0.00;;;24.10;61.80;;;;;;3911590;30;20064;-68
2022/08/21 04:38:45;;;;;;;0.00;0.00;;;24.10;61.80;;;;;;3898322;30;20534;-68
2022/08/21 04:41:08;;;;;;;0.00;0.00;;;24.10;61.90;;;;;;3898422;30;20053;-68
2022/08/21 04:43:32;;;;;;;0.57;0.47;;;24.10;61.90;;;;;;3911641;30;20474;-69
2022/08/21 04:45:54;;;;;;;0.00;0.00;;;24.10;61.90;;;;;;3911910;30;20051;-68
2022/08/21 04:48:18;;;;;;;0.00;0.00;;;24.10;62.00;;;;;;3898093;30;20060;-69
2022/08/21 04:50:44;;;;;;;0.30;0.30;;;24.00;61.90;;;;;;3911720;30;20064;-68
2022/08/21 04:53:08;;;;;;;0.00;0.00;;;24.00;61.90;;;;;;3898644;30;20055;-68
2022/08/21 04:55:30;;;;;;;0.00;0.00;;;24.00;62.30;;;;;;3911875;30;20056;-68
2022/08/21 04:57:53;;;;;;;0.20;0.20;;;24.00;62.40;;;;;;3890033;30;20057;-68
2022/08/21 05:00:18;;;;;;;0.00;0.00;;;24.10;62.40;;;;;;3910889;30;20493;-68
2022/08/21 05:02:42;;;;;;;0.00;0.00;;;24.00;62.30;;;;;;3911743;30;20067;-68
2022/08/21 05:05:05;;;;;;;0.00;0.00;;;24.00;62.20;;;;;;3911249;30;20053;-69
2022/08/21 05:07:30;;;;;;;0.10;0.10;;;24.00;62.20;;;;;;3911662;30;20422;-67
2022/08/21 05:10:05;;;;;;;0.00;0.00;;;24.00;62.20;;;;;;3911264;30;20056;-68
2022/08/21 05:12:27;;;;;;;0.30;0.30;;;24.00;62.30;;;;;;3911558;30;20464;-68
2022/08/21 05:14:49;;;;;;;0.65;0.65;;;24.00;62.30;;;;;;3911642;30;20060;-68
2022/08/21 05:17:13;;;;;;;0.00;0.00;;;24.00;62.40;;;;;;3910987;30;20144;-69
2022/08/21 05:19:35;;;;;;;0.43;0.43;;;24.00;62.50;;;;;;3910851;30;20052;-70
2022/08/21 05:21:57;;;;;;;0.00;0.00;;;24.00;62.40;;;;;;3909800;30;20122;-70
2022/08/21 05:24:19;;;;;;;0.10;0.10;;;24.00;62.40;;;;;;3911042;30;20072;-70
2022/08/21 05:26:41;;;;;;;0.10;0.10;;;24.00;63.20;;;;;;3911296;30;20114;-70
2022/08/21 05:29:04;;;;;;;0.05;0.05;;;24.10;62.30;;;;;;3910794;30;20076;-70
2022/08/21 05:31:30;;;;;;;0.10;0.10;;;24.00;62.10;;;;;;3897166;30;20136;-69
2022/08/21 05:33:54;;;;;;;0.00;0.00;;;24.10;62.20;;;;;;3911703;30;20143;-69
2022/08/21 05:36:18;;;;;;;0.00;0.00;;;24.00;62.10;;;;;;3912659;30;20056;-70
2022/08/21 05:38:41;;;;;;;0.00;0.00;;;24.10;62.10;;;;;;3913793;30;20056;-69
2022/08/21 05:41:03;;;;;;;0.00;0.00;;;24.10;62.20;;;;;;3900351;30;20132;-70
2022/08/21 05:43:25;;;;;;;0.00;0.00;;;24.10;62.10;;;;;;3914009;30;20517;-70
2022/08/21 05:45:47;;;;;;;0.00;0.00;;;24.10;62.00;;;;;;3914039;30;20138;-69
2022/08/21 05:48:13;;;;;;;0.03;0.03;;;24.10;62.00;;;;;;3913882;30;20052;-69
2022/08/21 05:50:37;;;;;;;0.00;0.00;;;24.10;61.80;;;;;;3913452;30;20056;-69
2022/08/21 05:53:00;;;;;;;0.00;0.00;;;24.10;61.70;;;;;;3913100;30;20057;-69
2022/08/21 05:55:25;;;;;;;0.00;0.00;;;24.10;61.40;;;;;;3912903;30;20132;-69
2022/08/21 05:57:48;;;;;;;1.45;1.23;;;24.10;61.20;;;;;;3913702;30;20056;-69
2022/08/21 06:00:12;;;;;;;0.68;0.68;;;24.00;60.90;;;;;;3911222;30;20059;-68
2022/08/21 06:02:33;;;;;;;0.00;0.00;;;24.00;60.70;;;;;;3913555;30;20060;-71
2022/08/21 06:04:57;;;;;;;0.10;0.10;;;24.00;60.50;;;;;;3913494;30;20064;-70
2022/08/21 06:07:21;;;;;;;0.00;0.00;;;24.00;60.30;;;;;;3900084;30;20064;-71
2022/08/21 06:09:43;;;;;;;0.00;0.00;;;24.00;61.10;;;;;;3913265;30;20064;-71
2022/08/21 06:12:06;;;;;;;0.00;0.00;;;23.90;59.90;;;;;;3914067;30;20111;-71
2022/08/21 06:14:28;;;;;;;0.17;0.17;;;23.90;59.90;;;;;;3898748;30;20057;-71
2022/08/21 06:16:50;;;;;;;0.00;0.00;;;23.80;59.90;;;;;;3899273;30;20394;-72
2022/08/21 06:19:13;;;;;;;0.00;0.00;;;23.90;60.20;;;;;;3899243;30;20091;-71
2022/08/21 06:21:35;;;;;;;0.00;0.00;;;23.80;60.20;;;;;;3904113;30;20041;-71
2022/08/21 06:23:59;;;;;;;0.00;0.00;;;23.80;60.20;;;;;;3916584;30;20511;-70
2022/08/21 06:26:22;;;;;;;1.33;1.25;;;23.80;60.20;;;;;;3907945;30;20064;-71
2022/08/21 06:28:44;;;;;;;0.00;0.00;;;23.80;60.30;;;;;;3927162;30;20114;-71
2022/08/21 06:31:12;;;;;;;0.17;0.17;;;23.80;60.30;;;;;;3907294;30;20107;-71
2022/08/21 06:33:34;;;;;;;0.08;0.08;;;23.80;60.30;;;;;;3885372;30;20077;-71
2022/08/21 06:35:56;;;;;;;0.03;0.03;;;23.90;60.50;;;;;;3907682;30;20068;-71
2022/08/21 06:38:19;;;;;;;0.00;0.00;;;23.90;60.50;;;;;;3899439;30;20045;-70
2022/08/21 06:40:43;;;;;;;0.13;0.13;;;23.90;60.50;;;;;;3911412;30;20448;-71
2022/08/21 06:43:10;;;;;;;0.03;0.03;;;23.90;60.50;;;;;;3912973;30;20052;-71
2022/08/21 06:45:32;;;;;;;0.00;0.00;;;23.90;60.50;;;;;;3897883;30;20064;-71
2022/08/21 06:47:53;;;;;;;0.00;0.00;;;23.90;60.60;;;;;;3897195;30;20076;-70
2022/08/21 06:50:15;;;;;;;0.00;0.00;;;23.90;60.70;;;;;;3906388;30;20060;-71
2022/08/21 06:52:38;;;;;;;0.00;0.00;;;24.00;60.80;;;;;;3912816;30;20064;-70
2022/08/21 06:55:00;;;;;;;0.00;0.00;;;24.00;60.90;;;;;;3913245;30;20061;-72
2022/08/21 06:57:25;;;;;;;0.00;0.00;;;24.00;60.90;;;;;;3925478;30;20436;-71
2022/08/21 06:59:47;;;;;;;0.00;0.00;;;24.00;60.90;;;;;;3922907;30;20501;-70
2022/08/21 07:02:09;;;;;;;0.00;0.00;;;24.10;61.00;;;;;;3912625;30;20131;-70
2022/08/21 07:04:31;;;;;;;0.00;0.00;;;24.10;60.90;;;;;;3912254;30;20112;-70
2022/08/21 07:06:52;;;;;;;0.20;0.20;;;24.10;60.80;;;;;;3899454;30;20607;-70
2022/08/21 07:09:14;;;;;;;0.15;0.15;;;24.20;60.90;;;;;;3912325;30;20143;-70
2022/08/21 07:11:38;;;;;;;0.05;0.05;;;24.20;60.80;;;;;;3899875;30;20068;-72
2022/08/21 07:14:05;;;;;;;0.15;0.15;;;24.30;60.80;;;;;;3907245;30;20068;-70
2022/08/21 07:16:27;;;;;;;0.32;0.32;;;24.30;60.80;;;;;;3907655;30;20524;-71
2022/08/21 07:18:50;;;;;;;2.00;1.67;;;24.30;60.90;;;;;;3905335;30;20060;-70
2022/08/21 07:21:12;;;;;;;0.00;0.00;;;24.40;60.70;;;;;;3907304;30;20484;-70
2022/08/21 07:23:36;;;;;;;0.00;0.00;;;24.40;60.60;;;;;;3904803;30;20118;-70
2022/08/21 07:25:59;;;;;;;0.00;0.00;;;24.40;60.60;;;;;;3904222;30;20466;-70
2022/08/21 07:28:21;;;;;;;0.20;0.20;;;24.50;61.50;;;;;;3911485;30;20048;-71
2022/08/21 07:30:45;;;;;;;0.00;0.00;;;24.50;60.50;;;;;;3894391;30;20049;-70
2022/08/21 07:33:07;;;;;;;0.00;0.00;;;24.50;60.40;;;;;;3905336;30;20137;-70
2022/08/21 07:35:31;;;;;;;1.65;0.45;;;24.50;60.30;;;;;;3907350;30;20057;-70
2022/08/21 07:37:53;;;;;;;0.15;0.15;;;24.50;60.20;;;;;;3906772;30;20525;-70
2022/08/21 07:40:16;;;;;;;0.40;0.40;;;24.60;60.30;;;;;;3903990;30;20118;-70
2022/08/21 07:42:42;;;;;;;0.00;0.00;;;24.60;60.10;;;;;;3904832;30;20057;-71
2022/08/21 07:45:04;;;;;;;0.47;0.47;;;24.60;60.00;;;;;;3908387;30;20501;-70
2022/08/21 07:47:28;;;;;;;0.00;0.00;;;24.60;59.90;;;;;;3908244;30;20087;-71
2022/08/21 07:50:04;;;;;;;0.00;0.00;;;24.60;59.90;;;;;;3904943;30;20049;-71
2022/08/21 07:52:26;;;;;;;0.05;0.05;;;24.70;59.90;;;;;;3891079;30;20092;-70
2022/08/21 07:54:48;;;;;;;0.00;0.00;;;24.70;59.70;;;;;;3904888;30;20057;-71
2022/08/21 07:57:10;;;;;;;0.00;0.00;;;24.70;59.60;;;;;;3904825;30;20060;-71
2022/08/21 07:59:32;;;;;;;0.00;0.00;;;24.70;59.40;;;;;;3891694;30;20455;-72
2022/08/21 08:01:54;;;;;;;0.00;0.00;;;24.70;59.20;;;;;;3908196;30;20076;-71
2022/08/21 08:04:17;;;;;;;1.67;1.65;;;24.80;59.30;;;;;;3907088;30;20056;-71
2022/08/21 08:06:43;;;;;;;0.00;0.00;;;24.80;59.20;;;;;;3904275;30;20064;-72
2022/08/21 08:09:05;;;;;;;0.00;0.00;;;24.80;59.00;;;;;;3903834;30;20142;-71
2022/08/21 08:11:27;;;;;;;0.00;0.00;;;24.80;58.80;;;;;;3903539;30;20144;-71
2022/08/21 08:13:52;;;;;;;12.02;2.92;;;24.80;58.50;;;;;;3904328;30;20110;-72
2022/08/21 08:16:15;;;;;;;0.00;0.00;;;24.80;58.30;;;;;;3906187;30;20102;-67
2022/08/21 08:18:37;;;;;;;0.00;0.00;;;24.80;58.10;;;;;;3904705;30;20059;-67
2022/08/21 08:21:00;;;;;;;0.00;0.00;;;24.80;58.00;;;;;;3904332;30;20053;-67
2022/08/21 08:23:23;;;;;;;0.00;0.00;;;24.80;58.00;;;;;;3891142;30;20145;-67
2022/08/21 08:25:45;;;;;;;0.43;0.43;;;24.80;57.80;;;;;;3903840;30;20628;-67
2022/08/21 08:28:08;;;;;;;0.00;0.00;;;24.80;57.80;;;;;;3892577;30;20063;-67
2022/08/21 08:30:38;;;;;;;1.27;1.13;;;24.80;57.80;;;;;;3905898;30;20494;-67
2022/08/21 08:33:00;;;;;;;2.72;0.55;;;24.80;57.90;;;;;;3904406;30;20421;-68
2022/08/21 08:35:23;;;;;;;0.30;0.30;;;24.80;57.80;;;;;;3909863;30;20048;-67
2022/08/21 08:37:47;;;;;;;0.30;0.30;;;24.80;57.70;;;;;;3908189;30;20209;-67
2022/08/21 08:40:19;;;;;;;0.00;0.00;;;24.80;57.50;;;;;;3894312;30;20591;-67
2022/08/21 08:42:42;;;;;;;0.00;0.00;;;24.80;57.50;;;;;;3904390;30;20063;-67
2022/08/21 08:45:07;;;;;;;0.17;0.17;;;24.80;57.60;;;;;;3890675;30;20054;-67
2022/08/21 08:47:32;;;;;;;0.00;0.00;;;24.80;57.50;;;;;;3909492;30;20152;-67
2022/08/21 08:50:00;;;;;;;0.00;0.00;;;24.80;57.50;;;;;;3904502;30;20107;-67
2022/08/21 08:52:30;;;;;;;0.00;0.00;;;24.80;57.40;;;;;;3890481;30;20419;-68
2022/08/21 08:55:04;;;;;;;0.00;0.00;;;24.80;57.30;;;;;;3907264;30;20068;-67
2022/08/21 08:57:26;;;;;;;0.00;0.00;;;24.80;57.20;;;;;;3904640;30;20521;-67
2022/08/21 08:59:51;;;;;;;0.05;0.05;;;24.80;57.20;;;;;;3903709;30;20090;-67
2022/08/21 09:02:15;;;;;;;0.00;0.00;;;24.80;57.10;;;;;;3906217;30;20081;-66
2022/08/21 09:04:38;;;;;;;0.00;0.00;;;24.80;57.00;;;;;;3906827;30;20468;-67
2022/08/21 09:07:10;;;;;;;0.20;0.20;;;24.80;56.80;;;;;;3906444;30;20071;-67
2022/08/21 09:09:47;;;;;;;0.00;0.00;;;24.90;56.90;;;;;;3904716;30;20140;-67
2022/08/21 09:12:19;;;;;;;0.00;0.00;;;24.90;56.90;;;;;;3907161;30;20082;-67
2022/08/21 09:14:53;;;;;;;10.50;1.98;;;24.90;56.80;;;;;;3906390;30;20065;-67
2022/08/21 09:17:28;;;;;;;0.00;0.00;;;24.90;56.70;;;;;;3908348;30;20069;-67
2022/08/21 09:20:04;;;;;;;0.00;0.00;;;24.90;56.70;;;;;;3910139;30;20057;-67
2022/08/21 09:22:36;;;;;;;0.35;0.35;;;24.90;56.80;;;;;;3909638;30;20052;-67
2022/08/21 09:25:08;;;;;;;0.00;0.00;;;24.90;56.80;;;;;;3906505;30;20052;-67
2022/08/21 09:27:33;;;;;;;0.00;0.00;;;25.00;56.80;;;;;;3908952;30;20148;-71
2022/08/21 09:29:57;;;;;;;0.00;0.00;;;25.00;56.70;;;;;;3910236;30;20064;-71
2022/08/21 09:32:22;;;;;;;0.00;0.00;;;25.00;56.70;;;;;;3907297;30;20142;-72
2022/08/21 09:34:55;;;;;;;0.00;0.00;;;25.00;56.80;;;;;;3906354;30;20057;-72
2022/08/21 09:37:18;;;;;;;0.75;0.75;;;25.00;56.90;;;;;;3905508;30;20210;-71
2022/08/21 09:39:41;;;;;;;0.00;0.00;;;25.00;56.90;;;;;;3906280;30;20057;-72
2022/08/21 09:42:11;;;;;;;0.00;0.00;;;25.00;56.90;;;;;;3910494;30;20417;-71
2022/08/21 09:44:39;;;;;;;0.00;0.00;;;25.10;57.00;;;;;;3906031;30;20088;-70
2022/08/21 09:47:01;;;;;;;0.00;0.00;;;25.10;57.00;;;;;;3892613;30;20143;-71
2022/08/21 09:49:31;;;;;;;0.00;0.00;;;25.10;57.00;;;;;;3892890;30;20053;-71
2022/08/21 09:51:54;;;;;;;0.00;0.00;;;25.10;57.10;;;;;;3906554;30;21184;-72
2022/08/21 09:54:19;;;;;;;0.00;0.00;;;25.10;57.30;;;;;;3895252;30;20049;-71
2022/08/21 09:59:37;;;;;;;0.00;0.00;;;25.20;57.40;;;;;;3905640;30;20053;-71
2022/08/21 10:02:01;;;;;;;0.00;0.00;;;25.20;57.50;;;;;;3910952;30;20114;-71
2022/08/21 10:04:28;;;;;;;0.00;0.00;;;25.20;57.40;;;;;;3905237;30;20075;-71
2022/08/21 10:06:50;;;;;;;0.00;0.00;;;25.30;57.50;;;;;;3910905;30;20102;-71
2022/08/21 10:09:15;;;;;;;0.00;0.00;;;25.30;57.50;;;;;;3906185;30;20056;-72
2022/08/21 10:11:50;;;;;;;0.00;0.00;;;25.30;57.50;;;;;;3906517;30;20481;-71
2022/08/21 10:14:20;;;;;;;0.20;0.20;;;25.30;57.50;;;;;;3906805;30;20425;-71
2022/08/21 10:16:53;;;;;;;0.00;0.00;;;25.40;57.60;;;;;;3905731;30;20119;-71
2022/08/21 10:19:24;;;;;;;0.00;0.00;;;25.40;57.70;;;;;;3908501;30;20072;-72
2022/08/21 10:21:58;;;;;;;0.00;0.00;;;25.40;57.60;;;;;;3905943;30;20446;-72
2022/08/21 10:24:29;;;;;;;0.52;0.52;;;25.30;57.50;;;;;;3908787;30;20488;-72
2022/08/21 10:27:00;;;;;;;0.00;0.00;;;25.40;57.60;;;;;;3906203;30;20079;-71
2022/08/21 10:29:45;;;;;;;0.55;0.55;;;25.40;57.60;;;;;;3895161;30;20103;-71
2022/08/21 10:32:22;;;;;;;0.38;0.38;;;25.40;57.50;;;;;;3907468;30;20076;-72
2022/08/21 10:34:56;;;;;;;0.10;0.10;;;25.40;57.50;;;;;;3904563;30;20111;-71
2022/08/21 10:37:29;;;;;;;0.10;0.10;;;25.40;57.60;;;;;;3908875;30;20060;-71
2022/08/21 10:40:05;;;;;;;0.00;0.00;;;25.40;57.60;;;;;;3905800;30;20056;-71
2022/08/21 10:42:36;;;;;;;0.00;0.00;;;25.40;57.50;;;;;;3892606;30;20057;-71
2022/08/21 10:45:12;;;;;;;0.00;0.00;;;25.40;57.30;;;;;;3907716;30;20395;-71
2022/08/21 10:47:41;;;;;;;0.00;0.00;;;25.40;57.50;;;;;;3908393;30;20405;-71
2022/08/21 10:50:13;;;;;;;0.00;0.00;;;25.40;57.50;;;;;;3905312;30;20064;-71
2022/08/21 10:52:54;;;;;;;0.00;0.00;;;25.50;57.60;;;;;;3905383;30;20056;-72
2022/08/21 10:55:20;;;;;;;0.00;0.00;;;25.50;57.40;;;;;;3909202;30;20060;-72
2022/08/21 10:57:47;;;;;;;0.00;0.00;;;25.50;57.40;;;;;;3906132;30;20509;-67
2022/08/21 11:00:12;;;;;;;0.35;0.35;;;25.50;57.30;;;;;;3905009;30;20143;-67
2022/08/21 11:02:41;;;;;;;0.00;0.00;;;25.50;57.20;;;;;;3905194;30;20045;-67
2022/08/21 11:05:11;;;;;;;0.00;0.00;;;25.50;57.10;;;;;;3891154;30;20064;-67
2022/08/21 11:07:37;;;;;;;0.00;0.00;;;25.50;57.20;;;;;;3906915;30;20134;-67
2022/08/21 11:10:06;;;;;;;0.00;0.00;;;25.50;57.20;;;;;;3904315;30;20057;-68
2022/08/21 11:12:36;;;;;;;0.00;0.00;;;25.40;57.30;;;;;;3904028;30;20147;-67
2022/08/21 11:15:03;;;;;;;0.00;0.00;;;25.40;57.30;;;;;;3911159;30;20408;-67
2022/08/21 11:17:33;;;;;;;0.00;0.00;;;25.40;57.20;;;;;;3908298;30;20065;-68
2022/08/21 11:20:05;;;;;;;0.00;0.00;;;25.40;57.20;;;;;;3905182;30;20071;-67
2022/08/21 11:22:34;;;;;;;0.17;0.17;;;25.30;57.10;;;;;;3904858;30;20057;-67
2022/08/21 11:25:01;;;;;;;0.00;0.00;;;25.30;57.10;;;;;;3895088;30;20060;-67
2022/08/21 11:27:27;;;;;;;0.00;0.00;;;25.30;57.10;;;;;;3905196;30;20081;-70
2022/08/21 11:29:53;;;;;;;0.00;0.00;;;25.30;57.30;;;;;;3908708;30;20206;-71
2022/08/21 11:32:40;;;;;;;0.00;0.00;;;25.30;57.30;;;;;;3906197;30;20053;-72
2022/08/21 11:35:11;;;;;;;0.00;0.00;;;25.20;57.30;;;;;;3902348;30;20112;-72
2022/08/21 11:37:49;;;;;;;0.00;0.00;;;25.20;57.40;;;;;;3904917;30;20125;-71
2022/08/21 11:40:25;;;;;;;0.00;0.00;;;25.20;57.50;;;;;;3904744;30;20106;-71
2022/08/21 11:42:58;;;;;;;0.00;0.00;;;25.20;57.60;;;;;;3906075;30;20072;-71
2022/08/21 11:45:26;;;;;;;0.10;0.10;;;25.20;57.70;;;;;;3907906;30;20493;-72
2022/08/21 11:48:01;;;;;;;0.00;0.00;;;25.20;57.80;;;;;;3909328;30;20114;-71
2022/08/21 11:50:29;;;;;;;0.00;0.00;;;25.20;58.00;;;;;;3904600;30;20080;-68
2022/08/21 11:53:01;;;;;;;0.00;0.00;;;25.20;58.30;;;;;;3904774;30;20056;-72
2022/08/21 11:55:31;;;;;;;1.23;1.17;;;25.20;58.60;;;;;;3891264;30;20112;-72
2022/08/21 11:57:58;;;;;;;0.00;0.00;;;25.20;58.70;;;;;;3907393;30;20060;-72
2022/08/21 12:00:24;;;;;;;0.00;0.00;;;25.10;58.80;;;;;;3904281;30;20057;-72
2022/08/21 12:02:51;;;;;;;0.00;0.00;;;25.10;58.80;;;;;;3904898;30;20226;-72
2022/08/21 12:05:28;;;;;;;0.00;0.00;;;25.10;58.90;;;;;;3905675;30;20829;-71
2022/08/21 12:08:02;;;;;;;0.03;0.03;;;25.10;58.90;;;;;;3892963;30;20498;-71
2022/08/21 12:10:33;;;;;;;0.00;0.00;;;25.10;58.90;;;;;;3906516;30;20413;-71
2022/08/21 12:13:08;;;;;;;0.00;0.00;;;25.10;59.00;;;;;;3905744;30;20149;-72
2022/08/21 12:15:30;;;;;;;0.00;0.00;;;25.10;59.00;;;;;;3907962;30;20501;-67
2022/08/21 12:17:57;;;;;;;1.20;0.55;;;25.10;59.10;;;;;;3890817;30;20442;-67
2022/08/21 12:20:27;;;;;;;0.00;0.00;;;25.10;59.20;;;;;;3904006;30;20409;-69
2022/08/21 12:22:54;;;;;;;0.00;0.00;;;25.10;59.30;;;;;;3907078;30;20068;-68
2022/08/21 12:25:19;;;;;;;0.00;0.00;;;25.10;59.30;;;;;;3907554;30;20064;-68
2022/08/21 12:27:48;;;;;;;0.00;0.00;;;25.10;59.20;;;;;;3908384;30;20134;-67
2022/08/21 12:30:23;;;;;;;0.00;0.00;;;25.20;59.10;;;;;;3906063;30;20064;-67
2022/08/21 12:32:56;;;;;;;0.00;0.00;;;25.10;58.90;;;;;;3904637;30;20549;-67
2022/08/21 12:35:22;;;;;;;0.00;0.00;;;25.20;58.90;;;;;;3905322;30;20057;-67
2022/08/21 12:37:53;;;;;;;0.10;0.10;;;25.20;58.80;;;;;;3905682;30;20066;-67
2022/08/21 12:40:22;;;;;;;0.00;0.00;;;25.20;58.70;;;;;;3904422;30;20057;-67